AirNav   ATP
 
 452 users online  

50CO Castle Rock Adventist Health Campus Heliport
Castle Rock, Colorado, USA


FAA INFORMATION EFFECTIVE 07 DECEMBER 2017

Location

FAA Identifier: 50CO
Lat/Long: 39-24-22.0000N / 104-53-03.0000W
39-24.366667N / 104-53.050000W
39.4061111 / -104.8841667
(estimated)
Elevation: 6134 ft. / 1870 m (estimated)
From city: 2 miles SE of CASTLE ROCK, CO
Time zone: UTC -7 (UTC -6 during Daylight Saving Time)
Zip code: 80108

Heliport Operations

Heliport use: Private use. Permission required prior to landing
Activation date: 02/2012
Control tower: no
ARTCC: DENVER CENTER
FSS: DENVER FLIGHT SERVICE STATION
Attendance: CONTINUOUS
Wind indicator: lighted
Segmented circle: no

Heliport Communications

WX ASOS at APA (10 nm N): 120.3 (720-873-2799)

Nearby radio navigation aids

VOR radial/distance  VOR name  Freq  Var
FQFr205/20.9FALCON VORTAC116.3011E
DENr195/26.5DENVER VOR/DME117.9008E
BRKr329/30.1BLACK FOREST VOR/DME112.5008E
DVVr194/31.7MILE HIGH VORTAC114.7008E
BJCr148/32.6JEFFCO VOR/DME115.4011E

 
NDB name  Hdg/Dist  Freq  Var  ID
CASSE205/3.326008EAP .- .--.

Heliport Services

Runway Information

Helipad H1

Dimensions: 40 x 40 ft. / 12 x 12 m
Surface: concrete, in good condition
Latitude: 39-24.366667N
Longitude: 104-53.050000W
Elevation: 6134.0 ft.
Traffic pattern: leftleft

Heliport Ownership and Management from official FAA records

Ownership: Privately-owned
Owner: PORTERCARE ADVENTIST HEALTH SYSTEM
2350 MEADOWS BLVD
CASTLE ROCK, CO 80109
Phone 720-455-2500
Manager: ERIC SCHWEITZER
2350 MEADOWS BLVD
CASTLE ROCK, CO 80109
Phone 720-455-2500

Instrument Procedures

There are no published instrument procedures at 50CO.

Some nearby airports with instrument procedures:

KAPA - Centennial Airport (10 nm N)
KBKF - Buckley Air Force Base (19 nm N)
KFTG - Front Range Airport (28 nm NE)
KDEN - Denver International Airport (29 nm N)
KBJC - Rocky Mountain Metropolitan Airport (32 nm N)
 
Loc | Ops | Rwys | IFR | FBO | Links
Com | Nav | Svcs | Stats | Notes


 
Aerial photo
No photo
 
Airport distance calculator
Flying to Castle Rock Adventist Health Campus Heliport? Find the distance to fly.

From to 50CO

Sunrise and sunset
Times for 13-Dec-2017
 Local
(UTC-7)
 Zulu
(UTC)
Morning civil twilight06:4213:42
Sunrise07:1214:12
Sunset16:3523:35
Evening civil twilight17:0600:06

Current date and time
Zulu (UTC)  14-Dec-2017 06:23:37
Local (UTC-7)  13-Dec-2017 23:23:37
 
METAR
KAPA 
10nm N 
140553Z 06007G15KT 9SM -SN OVC034 02/M06 A3016 RMK AO2 SNB37 SLP217 P0000 60000 T00171061 10056 20017 51024
KMNH 
16nm SE 
140551Z AUTO 00000KT 10SM SCT110 M01/M11 A3014 RMK AO2
KBKF 
20nm N 
140602Z 01010KT 7SM -SN BKN015 OVC060 01/M05 A3018 RMK AO2A
TAF
KAPA 
10nm N 
140538Z 1406/1506 01012KT P6SM VCSH SCT025 OVC050 FM140700 35010KT 3SM -SN BKN015 OVC025 TEMPO 1408/1412 1 1/2SM -SN BR BKN008 OVC015 FM141400 32007KT P6SM -SN SCT012 OVC025 FM141600 30005KT P6SM VCSH SCT020 BKN045 FM141800 33009KT P6SM SCT050 BKN090 FM141900 33007KT P6SM FEW090 SCT220 FM150100 04008KT P6SM SCT250 FM150200 10006KT P6SM FEW250
KBKF 
20nm N 
140100Z 1401/1507 33009KT 9999 BKN080 620809 QNH3003INS BECMG 1406/1407 36012KT 1600 -SN OVC005 620059 QNH3012INS BECMG 1416/1417 33015G25KT 9999 NSW BKN030 620303 QNH3015INS BECMG 1423/1424 34009KT 9999 SKC QNH3019INS TX04/1401Z TNM01/1412Z
NOTAMs
Click for the latest NOTAMs
NOTAMs are issued by the DoD/FAA and will open in a separate window not controlled by AirNav.

 

 
 

Would you like to see your business listed on this page?

 If your business provides an interesting product or service to pilots, flight crews, aircraft, or users of the Castle Rock Adventist Health Campus Heliport, you should consider listing it here.  To start the listing process, click on the button below
 
Add a business
 

Other Pages about Castle Rock Adventist Health Campus Heliport

Update a link
 
Copyright © AirNav, LLC. All rights reserved. Privacy Policy  Contact